Time;durP1;ratioP1;P1;durP2;ratioP2;P2;SDS_P1;SDS_P2;PMS_P1;PMS_P2;Temp;Humidity;BMP_temperature;BMP_pressure;BME280_temperature;BME280_humidity;BME280_pressure;Samples;Min_cycle;Max_cycle;Signal;HPM_P1;HPM_P2
2023/10/02 00:01:47;;;;;;;8.38;6.15;;;20.60;70.80;;;;;;5135770;27;20220;-72
2023/10/02 00:04:18;;;;;;;7.32;5.60;;;20.60;70.80;;;;;;5134490;27;20188;-71
2023/10/02 00:06:47;;;;;;;8.13;5.70;;;20.60;70.80;;;;;;5135886;27;20235;-73
2023/10/02 00:09:20;;;;;;;8.02;5.85;;;20.60;70.80;;;;;;5135151;27;20180;-73
2023/10/02 00:11:46;;;;;;;7.80;5.90;;;20.60;70.80;;;;;;5134933;27;20177;-73
2023/10/02 00:14:19;;;;;;;7.47;5.90;;;20.60;70.80;;;;;;5135146;27;20638;-72
2023/10/02 00:17:00;;;;;;;8.55;5.93;;;20.60;70.80;;;;;;5135374;27;20192;-72
2023/10/02 00:19:36;;;;;;;8.43;5.80;;;20.50;70.80;;;;;;5134596;27;20180;-72
2023/10/02 00:22:06;;;;;;;7.60;5.88;;;20.50;70.70;;;;;;5135206;27;20263;-73
2023/10/02 00:24:35;;;;;;;9.02;6.38;;;20.50;70.70;;;;;;5135153;27;20639;-73
2023/10/02 00:27:02;;;;;;;7.15;5.40;;;20.50;70.80;;;;;;5099582;28;20189;-73
2023/10/02 00:29:28;;;;;;;7.32;5.65;;;20.50;70.70;;;;;;5114230;28;20190;-72
2023/10/02 00:31:54;;;;;;;8.15;6.18;;;20.50;70.70;;;;;;5113603;28;20542;-72
2023/10/02 00:34:30;;;;;;;6.95;5.30;;;20.50;70.70;;;;;;5114446;28;20181;-72
2023/10/02 00:36:57;;;;;;;7.60;5.38;;;20.50;70.70;;;;;;5114438;28;20741;-73
2023/10/02 00:39:30;;;;;;;8.00;5.90;;;20.60;70.80;;;;;;5113603;28;20200;-73
2023/10/02 00:42:16;;;;;;;9.02;6.18;;;20.50;70.80;;;;;;5114364;28;20666;-73
2023/10/02 00:47:42;;;;;;;8.23;5.85;;;20.50;70.70;;;;;;5099703;28;20217;-72
2023/10/02 00:50:17;;;;;;;7.22;5.38;;;20.50;70.70;;;;;;5113803;28;20177;-72
2023/10/02 00:52:47;;;;;;;7.55;5.50;;;20.50;70.70;;;;;;5114320;28;20218;-72
2023/10/02 00:55:17;;;;;;;7.65;5.75;;;20.50;70.70;;;;;;5113031;28;20635;-72
2023/10/02 00:57:45;;;;;;;6.65;5.43;;;20.50;70.70;;;;;;5114367;28;20187;-72
2023/10/02 01:00:17;;;;;;;8.15;6.05;;;20.50;70.70;;;;;;5112954;28;20180;-72
2023/10/02 01:02:57;;;;;;;7.05;5.68;;;20.50;70.70;;;;;;5114033;28;20176;-71
2023/10/02 01:05:27;;;;;;;6.43;4.90;;;20.50;70.70;;;;;;5113969;28;20177;-72
2023/10/02 01:07:54;;;;;;;7.55;5.25;;;20.50;70.70;;;;;;5113572;28;20226;-72
2023/10/02 01:10:20;;;;;;;6.30;5.15;;;20.50;70.70;;;;;;5095667;28;20173;-78
2023/10/02 01:13:01;;;;;;;7.35;5.47;;;20.50;70.70;;;;;;5113899;28;20201;-73
2023/10/02 01:15:29;;;;;;;7.45;6.00;;;20.50;70.80;;;;;;5113092;28;20161;-73
2023/10/02 01:18:21;;;;;;;6.47;5.25;;;20.50;70.70;;;;;;5095450;28;20177;-73
2023/10/02 01:20:48;;;;;;;7.78;6.05;;;20.50;70.70;;;;;;5113408;28;20180;-72
2023/10/02 01:23:16;;;;;;;6.75;5.38;;;20.50;70.80;;;;;;5095032;28;20185;-73
2023/10/02 01:25:56;;;;;;;6.65;5.15;;;20.50;70.70;;;;;;5095829;28;20238;-72
2023/10/02 01:28:51;;;;;;;7.47;5.30;;;20.50;70.70;;;;;;5112621;28;20218;-73
2023/10/02 01:31:32;;;;;;;7.07;5.05;;;20.50;70.70;;;;;;5113058;28;20177;-73
2023/10/02 01:33:59;;;;;;;7.97;5.65;;;20.50;70.60;;;;;;5113109;28;20581;-73
2023/10/02 01:36:28;;;;;;;7.25;5.40;;;20.50;70.70;;;;;;5112598;28;20234;-74
2023/10/02 01:38:59;;;;;;;6.95;5.68;;;20.50;70.60;;;;;;5095380;28;20564;-73
2023/10/02 01:41:26;;;;;;;6.15;4.93;;;20.50;70.60;;;;;;5096083;28;20173;-73
2023/10/02 01:43:52;;;;;;;6.88;5.57;;;20.40;70.60;;;;;;5112648;28;20199;-71
2023/10/02 01:46:18;;;;;;;7.30;5.40;;;20.40;70.60;;;;;;5093836;28;20703;-72
2023/10/02 01:48:48;;;;;;;8.38;5.43;;;20.40;70.60;;;;;;5113038;28;20305;-71
2023/10/02 01:51:25;;;;;;;6.97;5.82;;;20.40;70.60;;;;;;5112343;28;20233;-73
2023/10/02 01:53:51;;;;;;;7.30;5.30;;;20.40;70.60;;;;;;5113266;28;20272;-72
2023/10/02 01:56:20;;;;;;;6.15;4.80;;;20.40;70.60;;;;;;5111969;28;20173;-73
2023/10/02 01:58:48;;;;;;;7.72;5.63;;;20.40;70.60;;;;;;5112958;28;20540;-73
2023/10/02 02:01:14;;;;;;;8.02;5.53;;;20.30;70.50;;;;;;5112697;28;20180;-73
2023/10/02 02:03:41;;;;;;;6.72;4.90;;;20.40;70.60;;;;;;5112101;28;20168;-72
2023/10/02 02:06:10;;;;;;;7.93;5.75;;;20.40;70.60;;;;;;5112807;28;20177;-73
2023/10/02 02:08:36;;;;;;;7.15;5.43;;;20.40;70.60;;;;;;5112946;28;20222;-73
2023/10/02 02:11:14;;;;;;;9.25;5.80;;;20.40;70.60;;;;;;5112113;28;20169;-75
2023/10/02 02:13:44;;;;;;;7.57;5.60;;;20.40;70.60;;;;;;5112851;28;20216;-73
2023/10/02 02:16:14;;;;;;;7.78;5.80;;;20.40;71.50;;;;;;5112607;28;20698;-73
2023/10/02 02:18:42;;;;;;;7.47;5.30;;;20.40;70.60;;;;;;5112036;28;20204;-73
2023/10/02 02:21:12;;;;;;;8.00;5.75;;;20.40;70.60;;;;;;5112565;28;20222;-73
2023/10/02 02:23:37;;;;;;;6.88;5.20;;;20.40;70.60;;;;;;5112672;28;20662;-73
2023/10/02 02:26:03;;;;;;;7.32;5.40;;;20.40;71.50;;;;;;5111783;28;20205;-73
2023/10/02 02:28:29;;;;;;;6.50;5.28;;;20.40;70.60;;;;;;5112637;28;20191;-72
2023/10/02 02:30:55;;;;;;;7.15;5.82;;;20.40;70.60;;;;;;5112972;28;20181;-72
2023/10/02 02:33:34;;;;;;;6.43;5.22;;;20.40;71.50;;;;;;5111619;28;20299;-73
2023/10/02 02:36:05;;;;;;;7.13;5.60;;;20.40;70.60;;;;;;5112564;28;20169;-72
2023/10/02 02:38:33;;;;;;;7.03;5.50;;;20.40;70.60;;;;;;5111952;28;20260;-73
2023/10/02 02:41:06;;;;;;;6.70;5.68;;;20.40;70.60;;;;;;5112641;28;20177;-73
2023/10/02 02:43:32;;;;;;;8.25;5.78;;;20.40;70.60;;;;;;5112766;28;20173;-72
2023/10/02 02:45:57;;;;;;;7.80;5.70;;;20.40;70.60;;;;;;5111836;28;20658;-72
2023/10/02 02:48:25;;;;;;;6.70;5.25;;;20.30;70.60;;;;;;5112392;28;20983;-72
2023/10/02 02:50:51;;;;;;;6.47;5.07;;;20.40;70.60;;;;;;5112584;28;20182;-72
2023/10/02 02:53:16;;;;;;;6.70;4.90;;;20.30;70.60;;;;;;5111302;28;20240;-72
2023/10/02 02:55:43;;;;;;;7.60;5.78;;;20.30;70.60;;;;;;5112583;28;20208;-73
2023/10/02 02:58:09;;;;;;;7.35;5.78;;;20.30;70.60;;;;;;5114308;28;20623;-73
2023/10/02 03:00:35;;;;;;;7.18;5.28;;;20.30;70.60;;;;;;5115611;28;20169;-72
2023/10/02 03:03:02;;;;;;;8.13;5.80;;;20.30;70.60;;;;;;5116174;28;20200;-73
2023/10/02 03:05:41;;;;;;;7.47;5.88;;;20.30;70.60;;;;;;5116036;28;20646;-70
2023/10/02 03:08:06;;;;;;;12.02;5.72;;;20.30;70.60;;;;;;5115247;28;20177;-73
2023/10/02 03:10:37;;;;;;;7.80;5.50;;;20.30;70.60;;;;;;5116144;28;20179;-74
2023/10/02 03:13:15;;;;;;;7.57;5.57;;;20.30;70.60;;;;;;5115860;28;20212;-72
2023/10/02 03:15:47;;;;;;;7.97;5.57;;;20.30;70.60;;;;;;5115351;28;20173;-72
2023/10/02 03:18:31;;;;;;;7.22;5.43;;;20.30;70.60;;;;;;5115603;28;20173;-72
2023/10/02 03:21:14;;;;;;;7.85;5.28;;;20.30;70.50;;;;;;5115456;28;20184;-72
2023/10/02 03:23:43;;;;;;;6.63;5.20;;;20.30;70.60;;;;;;5115875;28;20256;-72
2023/10/02 03:26:30;;;;;;;6.43;5.15;;;20.30;70.60;;;;;;5115277;28;20662;-72
2023/10/02 03:29:03;;;;;;;7.05;5.30;;;20.30;70.60;;;;;;5115074;28;20184;-72
2023/10/02 03:31:35;;;;;;;6.75;5.47;;;20.30;70.50;;;;;;5115556;28;20188;-72
2023/10/02 03:34:48;;;;;;;7.55;5.57;;;20.30;70.60;;;;;;5115474;28;20212;-72
2023/10/02 03:36:59;;;;;;;6.10;4.82;;;20.30;70.50;;;;;;5106241;28;20191;-72
2023/10/02 03:42:12;;;;;;;7.22;5.63;;;20.30;70.60;;;;;;5114511;28;20184;-72
2023/10/02 03:44:42;;;;;;;7.43;5.65;;;20.30;70.50;;;;;;5115288;28;20639;-71
2023/10/02 03:47:12;;;;;;;7.57;5.63;;;20.30;70.50;;;;;;5114881;28;20225;-72
2023/10/02 03:49:42;;;;;;;8.00;5.65;;;20.30;70.50;;;;;;5114438;28;20173;-71
2023/10/02 03:52:17;;;;;;;6.90;5.10;;;20.30;70.50;;;;;;5115101;28;20406;-72
2023/10/02 03:54:43;;;;;;;6.80;5.35;;;20.20;71.30;;;;;;5115369;28;20183;-72
2023/10/02 03:57:37;;;;;;;7.40;5.47;;;20.30;70.50;;;;;;5114235;28;20314;-73
2023/10/02 04:02:57;;;;;;;7.95;5.90;;;20.20;70.50;;;;;;5100670;28;20650;-72
2023/10/02 04:05:33;;;;;;;6.20;5.20;;;20.20;70.50;;;;;;5114901;28;20321;-72
2023/10/02 04:08:22;;;;;;;6.93;4.60;;;20.20;70.50;;;;;;5114310;28;20531;-74
2023/10/02 04:10:55;;;;;;;7.10;5.97;;;20.20;70.50;;;;;;5114560;28;20264;-73
2023/10/02 04:13:39;;;;;;;6.57;5.32;;;20.20;70.50;;;;;;5114570;28;20296;-73
2023/10/02 04:18:49;;;;;;;7.47;5.43;;;20.20;70.50;;;;;;5114303;28;20168;-73
2023/10/02 04:21:22;;;;;;;7.25;5.40;;;20.20;70.50;;;;;;5114803;28;20251;-74
2023/10/02 04:23:52;;;;;;;7.43;5.43;;;20.20;70.50;;;;;;5114720;28;20216;-73
2023/10/02 04:26:21;;;;;;;7.75;5.82;;;20.20;70.50;;;;;;5114273;28;20278;-73
2023/10/02 04:28:55;;;;;;;6.90;5.30;;;20.20;70.50;;;;;;5114483;28;20662;-72
2023/10/02 04:31:30;;;;;;;9.40;6.18;;;20.20;70.50;;;;;;5113713;28;20197;-72
2023/10/02 04:34:15;;;;;;;6.70;5.15;;;20.20;70.50;;;;;;5114636;28;20212;-72
2023/10/02 04:36:42;;;;;;;6.65;5.13;;;20.20;70.50;;;;;;5114351;28;20572;-72
2023/10/02 04:42:11;;;;;;;5.55;4.63;;;20.20;70.50;;;;;;5082486;28;20268;-72
2023/10/02 04:44:56;;;;;;;6.75;5.30;;;20.20;70.50;;;;;;5114450;28;20180;-71
2023/10/02 04:47:23;;;;;;;6.88;5.15;;;20.20;70.50;;;;;;5113083;28;20224;-71
2023/10/02 04:52:56;;;;;;;8.65;4.95;;;20.20;70.50;;;;;;5113482;28;20208;-71
2023/10/02 04:55:31;;;;;;;7.25;4.78;;;20.20;70.50;;;;;;5113713;28;20177;-72
2023/10/02 04:58:04;;;;;;;7.97;6.18;;;20.20;70.50;;;;;;5095652;28;20248;-72
2023/10/02 05:00:32;;;;;;;7.32;5.03;;;20.20;70.50;;;;;;5113093;28;20208;-71
2023/10/02 05:05:49;;;;;;;6.72;5.00;;;20.10;70.40;;;;;;5114209;28;20225;-71
2023/10/02 05:08:21;;;;;;;7.50;5.35;;;20.20;70.40;;;;;;5112919;28;20169;-72
2023/10/02 05:10:56;;;;;;;6.60;5.32;;;20.20;70.50;;;;;;5113733;28;20180;-72
2023/10/02 05:16:12;;;;;;;7.60;5.70;;;20.10;70.30;;;;;;5113377;28;20199;-72
2023/10/02 05:18:47;;;;;;;6.57;5.30;;;20.10;70.40;;;;;;5113543;28;20505;-72
2023/10/02 05:21:17;;;;;;;6.80;5.25;;;20.10;70.30;;;;;;5111837;28;20180;-73
2023/10/02 05:23:56;;;;;;;7.38;5.40;;;20.20;70.40;;;;;;5113663;28;20260;-72
2023/10/02 05:26:36;;;;;;;7.03;5.07;;;20.20;70.40;;;;;;5113028;28;20177;-73
2023/10/02 05:29:05;;;;;;;8.55;6.10;;;20.10;70.30;;;;;;5112590;28;20168;-71
2023/10/02 05:31:35;;;;;;;8.80;5.75;;;20.10;70.30;;;;;;5113247;28;20212;-71
2023/10/02 05:34:07;;;;;;;8.23;5.65;;;20.10;70.40;;;;;;5113028;28;20212;-72
2023/10/02 05:36:32;;;;;;;7.25;5.50;;;20.10;70.30;;;;;;5112706;28;20180;-73
2023/10/02 05:41:46;;;;;;;8.50;5.32;;;20.10;70.30;;;;;;5112610;28;20180;-72
2023/10/02 05:44:23;;;;;;;7.85;5.03;;;20.10;70.30;;;;;;5112888;28;20176;-71
2023/10/02 05:47:07;;;;;;;9.57;6.25;;;20.10;70.30;;;;;;5113184;28;20240;-71
2023/10/02 05:49:33;;;;;;;8.70;5.68;;;20.10;70.30;;;;;;5112327;28;20213;-71
2023/10/02 05:52:00;;;;;;;7.10;5.18;;;20.10;70.30;;;;;;5112838;28;20172;-70
2023/10/02 05:54:29;;;;;;;6.30;4.90;;;20.10;70.30;;;;;;5112713;28;20237;-72
2023/10/02 05:57:08;;;;;;;7.35;5.47;;;20.10;70.30;;;;;;5112653;28;20165;-72
2023/10/02 05:59:48;;;;;;;6.88;5.20;;;20.00;70.20;;;;;;5113125;28;20180;-71
2023/10/02 06:02:21;;;;;;;7.57;5.70;;;20.10;70.30;;;;;;5112864;28;20177;-72
2023/10/02 06:04:48;;;;;;;6.50;5.20;;;20.10;70.20;;;;;;5112902;28;20180;-72
2023/10/02 06:10:07;;;;;;;6.80;5.35;;;20.10;70.20;;;;;;5112031;28;20217;-75
2023/10/02 06:12:32;;;;;;;8.18;5.22;;;20.10;70.30;;;;;;5112802;28;20223;-74
2023/10/02 06:15:04;;;;;;;6.85;5.30;;;20.10;70.20;;;;;;5112736;28;20627;-75
2023/10/02 06:17:32;;;;;;;7.28;5.47;;;20.10;70.20;;;;;;5112275;28;20184;-74
2023/10/02 06:19:57;;;;;;;7.65;5.72;;;20.10;70.20;;;;;;5112991;28;20200;-73
2023/10/02 06:22:26;;;;;;;8.48;5.05;;;20.10;70.20;;;;;;5112859;28;20619;-74
2023/10/02 06:24:51;;;;;;;9.00;5.72;;;20.10;70.20;;;;;;5112193;28;20165;-75
2023/10/02 06:27:21;;;;;;;7.13;5.03;;;20.10;70.20;;;;;;5112383;28;20974;-74
2023/10/02 06:29:49;;;;;;;7.30;6.28;;;20.10;71.00;;;;;;5112746;28;20646;-72
2023/10/02 06:32:19;;;;;;;7.00;5.45;;;20.10;70.20;;;;;;5114271;28;20204;-72
2023/10/02 06:34:45;;;;;;;6.97;5.00;;;20.00;70.10;;;;;;5116807;28;20663;-73
2023/10/02 06:37:12;;;;;;;7.78;5.32;;;20.10;70.20;;;;;;5116579;28;20260;-74
2023/10/02 06:39:40;;;;;;;7.45;5.25;;;20.10;70.10;;;;;;5115937;28;20272;-72
2023/10/02 06:42:09;;;;;;;6.65;5.60;;;20.10;70.10;;;;;;5116210;28;20635;-73
2023/10/02 06:44:41;;;;;;;7.50;5.53;;;20.10;70.10;;;;;;5115746;28;20192;-70
2023/10/02 06:47:13;;;;;;;8.75;5.95;;;20.10;70.00;;;;;;5116193;28;20223;-73
2023/10/02 06:49:43;;;;;;;8.40;6.07;;;20.20;70.00;;;;;;5116352;28;20549;-71
2023/10/02 06:52:15;;;;;;;7.65;5.20;;;20.20;70.00;;;;;;5115385;28;20177;-71
2023/10/02 06:54:44;;;;;;;8.55;5.15;;;20.20;69.80;;;;;;5116311;28;20173;-72
2023/10/02 06:57:14;;;;;;;6.85;5.03;;;20.20;69.80;;;;;;5116295;28;20183;-73
2023/10/02 06:59:41;;;;;;;8.18;5.13;;;20.20;69.80;;;;;;5115458;28;20184;-71
2023/10/02 07:02:12;;;;;;;8.35;5.40;;;20.20;69.70;;;;;;5115925;28;20200;-72
2023/10/02 07:04:37;;;;;;;8.85;5.68;;;20.30;69.80;;;;;;5116236;28;20181;-71
2023/10/02 07:07:03;;;;;;;7.35;5.38;;;20.30;69.80;;;;;;5115305;28;20654;-73
2023/10/02 07:09:33;;;;;;;6.65;5.05;;;20.30;69.80;;;;;;5116033;28;20181;-72
2023/10/02 07:12:08;;;;;;;7.90;5.57;;;20.30;69.80;;;;;;5116090;28;20590;-72
2023/10/02 07:14:36;;;;;;;7.38;5.57;;;20.30;69.80;;;;;;5115413;28;20321;-73
2023/10/02 07:17:11;;;;;;;7.57;5.82;;;20.30;69.80;;;;;;5115908;28;20169;-72
2023/10/02 07:19:38;;;;;;;8.45;5.40;;;20.30;69.80;;;;;;5115804;28;20184;-72
2023/10/02 07:22:05;;;;;;;9.00;5.25;;;20.30;69.80;;;;;;5114877;28;20709;-73
2023/10/02 07:24:40;;;;;;;8.65;5.65;;;20.30;69.70;;;;;;5115889;28;20200;-72
2023/10/02 07:27:22;;;;;;;8.68;6.68;;;20.30;69.70;;;;;;5097465;28;20165;-73
2023/10/02 07:29:51;;;;;;;6.82;4.82;;;20.40;69.80;;;;;;5115789;28;20678;-72
2023/10/02 07:32:35;;;;;;;7.88;5.32;;;20.40;69.70;;;;;;5115185;28;20233;-71
2023/10/02 07:35:10;;;;;;;9.40;5.80;;;20.40;69.70;;;;;;5114920;28;20180;-72
2023/10/02 07:37:36;;;;;;;7.93;5.40;;;20.40;69.80;;;;;;5115739;28;20172;-72
2023/10/02 07:40:02;;;;;;;7.55;5.63;;;20.40;69.70;;;;;;5115439;28;20173;-72
2023/10/02 07:42:34;;;;;;;8.57;5.57;;;20.40;69.80;;;;;;5114347;28;20252;-71
2023/10/02 07:45:11;;;;;;;9.40;5.28;;;20.40;69.80;;;;;;5115204;28;20180;-71
2023/10/02 07:47:55;;;;;;;8.68;5.72;;;20.40;69.80;;;;;;5098893;28;20259;-71
2023/10/02 07:50:33;;;;;;;7.53;5.20;;;20.50;69.80;;;;;;5115037;28;20546;-71
2023/10/02 07:53:01;;;;;;;8.13;5.82;;;20.50;69.70;;;;;;5115017;28;20229;-71
2023/10/02 07:55:27;;;;;;;7.90;5.78;;;20.40;69.70;;;;;;5114267;28;20225;-72
2023/10/02 07:57:58;;;;;;;7.85;5.40;;;20.50;69.80;;;;;;5115509;28;20177;-72
2023/10/02 08:00:41;;;;;;;7.28;5.20;;;20.50;69.80;;;;;;5115005;28;20667;-71
2023/10/02 08:03:31;;;;;;;7.32;5.90;;;20.50;69.80;;;;;;5114226;28;20173;-71
2023/10/02 08:05:56;;;;;;;8.60;5.40;;;20.50;69.80;;;;;;5115114;28;20185;-72
2023/10/02 08:08:25;;;;;;;7.55;5.35;;;20.50;69.80;;;;;;5114810;28;20255;-72
2023/10/02 08:10:51;;;;;;;8.63;5.68;;;20.50;69.90;;;;;;5114506;28;20169;-73
2023/10/02 08:13:17;;;;;;;8.35;5.63;;;20.40;69.90;;;;;;5114563;28;20847;-73
2023/10/02 08:15:44;;;;;;;7.25;5.40;;;20.50;70.10;;;;;;5115047;28;20165;-73
2023/10/02 08:18:17;;;;;;;6.72;5.22;;;20.50;70.10;;;;;;5113689;28;20184;-73
2023/10/02 08:20:45;;;;;;;8.75;5.45;;;20.50;70.10;;;;;;5114904;28;20177;-72
2023/10/02 08:23:21;;;;;;;7.75;5.75;;;20.50;70.10;;;;;;5114084;28;20204;-74
2023/10/02 08:26:00;;;;;;;9.25;6.05;;;20.40;70.20;;;;;;5115042;28;20233;-72
2023/10/02 08:28:29;;;;;;;8.95;5.43;;;20.50;70.20;;;;;;5114588;28;20184;-71
2023/10/02 08:30:59;;;;;;;7.15;5.30;;;20.50;70.20;;;;;;5114144;28;20169;-72
2023/10/02 08:33:25;;;;;;;8.85;5.50;;;20.50;70.20;;;;;;5114485;28;20240;-72
2023/10/02 08:35:51;;;;;;;6.82;5.30;;;20.50;70.20;;;;;;5114871;28;20181;-72
2023/10/02 08:38:24;;;;;;;7.97;5.35;;;20.50;70.20;;;;;;5113407;28;20188;-73
2023/10/02 08:40:57;;;;;;;6.25;5.45;;;20.50;70.20;;;;;;5114522;28;20256;-72
2023/10/02 08:43:27;;;;;;;8.25;6.15;;;20.50;70.10;;;;;;5114124;28;20188;-71
2023/10/02 08:45:52;;;;;;;8.00;5.70;;;20.50;70.10;;;;;;5113485;28;20516;-71
2023/10/02 08:48:20;;;;;;;8.95;6.10;;;20.60;70.10;;;;;;5113595;28;20278;-72
2023/10/02 08:50:49;;;;;;;7.35;6.05;;;20.60;70.00;;;;;;5114161;28;20177;-72
2023/10/02 08:53:21;;;;;;;8.43;5.85;;;20.60;70.00;;;;;;5113238;28;20292;-72
2023/10/02 08:58:16;;;;;;;8.05;5.72;;;20.70;69.70;;;;;;5113330;28;20165;-72
2023/10/02 09:01:17;;;;;;;8.38;5.82;;;20.70;69.70;;;;;;5114037;28;20184;-72
2023/10/02 09:06:41;;;;;;;7.43;5.80;;;20.80;69.90;;;;;;5113145;28;20180;-71
2023/10/02 09:09:17;;;;;;;8.73;5.63;;;20.80;69.90;;;;;;5113576;28;20255;-74
2023/10/02 09:11:45;;;;;;;8.25;5.50;;;20.70;69.90;;;;;;5113839;28;20177;-73
2023/10/02 09:16:46;;;;;;;7.88;5.40;;;20.70;70.20;;;;;;5113842;28;20514;-73
2023/10/02 09:19:31;;;;;;;6.88;4.70;;;20.70;70.20;;;;;;5113511;28;20531;-74
2023/10/02 09:22:06;;;;;;;7.20;5.45;;;20.70;70.30;;;;;;5113783;28;20260;-73
2023/10/02 09:24:35;;;;;;;6.95;5.13;;;20.70;70.30;;;;;;5113546;28;20181;-73
2023/10/02 09:32:50;;;;;;;7.80;5.70;;;20.70;70.40;;;;;;5106879;28;20232;-72
2023/10/02 09:35:23;;;;;;;7.43;5.47;;;20.70;70.50;;;;;;5112312;28;20176;-74
2023/10/02 09:37:56;;;;;;;7.88;5.70;;;20.70;70.40;;;;;;5113328;28;20208;-72
2023/10/02 09:40:27;;;;;;;7.57;5.70;;;20.70;70.50;;;;;;5112744;28;20682;-72
2023/10/02 09:43:00;;;;;;;7.18;5.28;;;20.70;70.50;;;;;;5113459;28;20185;-72
2023/10/02 09:45:37;;;;;;;7.85;4.72;;;20.60;70.40;;;;;;5113077;28;20175;-71
2023/10/02 09:48:05;;;;;;;8.40;5.68;;;20.70;70.50;;;;;;5095827;28;20235;-71
2023/10/02 09:50:32;;;;;;;7.38;5.43;;;20.70;70.70;;;;;;5079263;28;20708;-71
2023/10/02 09:53:10;;;;;;;10.27;5.82;;;20.70;70.60;;;;;;5078130;28;20204;-68
2023/10/02 09:55:41;;;;;;;10.48;6.25;;;20.70;70.60;;;;;;5094880;28;20184;-69
2023/10/02 09:58:26;;;;;;;9.20;5.82;;;20.70;70.60;;;;;;5112752;28;20169;-70
2023/10/02 10:03:54;;;;;;;7.93;5.75;;;20.80;70.70;;;;;;5112650;28;20191;-71
2023/10/02 10:06:27;;;;;;;11.88;6.15;;;20.80;70.90;;;;;;5112085;28;20208;-71
2023/10/02 10:11:43;;;;;;;10.73;6.10;;;20.90;70.90;;;;;;5113000;28;20184;-72
2023/10/02 10:14:37;;;;;;;11.88;6.55;;;20.90;70.90;;;;;;5094954;28;20215;-71
2023/10/02 10:17:13;;;;;;;9.65;5.80;;;20.90;70.60;;;;;;5112019;28;20178;-72
2023/10/02 10:20:18;;;;;;;9.88;5.68;;;21.00;70.50;;;;;;5112959;28;20181;-72
2023/10/02 10:22:56;;;;;;;10.30;6.57;;;20.90;70.50;;;;;;5109794;28;20181;-72
2023/10/02 10:28:08;;;;;;;10.85;5.80;;;20.90;70.60;;;;;;5113152;28;20521;-74
2023/10/02 10:30:39;;;;;;;8.75;5.43;;;20.90;70.80;;;;;;5112226;28;20185;-71
2023/10/02 10:35:38;;;;;;;10.70;5.75;;;20.90;70.80;;;;;;5112622;28;20204;-74
2023/10/02 10:38:23;;;;;;;12.57;6.18;;;20.90;70.80;;;;;;5111935;28;20181;-73
2023/10/02 10:40:54;;;;;;;10.25;5.85;;;20.90;70.90;;;;;;5112819;28;20220;-74
2023/10/02 10:43:21;;;;;;;10.38;6.60;;;21.00;71.00;;;;;;5112284;28;20178;-73
2023/10/02 10:45:48;;;;;;;8.65;5.63;;;21.00;70.90;;;;;;5111966;28;20177;-74
2023/10/02 10:48:23;;;;;;;8.18;5.88;;;21.00;70.80;;;;;;5112122;28;20308;-73
2023/10/02 10:51:06;;;;;;;10.50;5.75;;;21.10;70.80;;;;;;5112163;28;20584;-74
2023/10/02 10:53:32;;;;;;;8.07;6.20;;;21.10;70.80;;;;;;5112566;28;20208;-75
2023/10/02 10:56:17;;;;;;;13.90;6.40;;;21.10;70.90;;;;;;5112424;28;20177;-76
2023/10/02 10:58:44;;;;;;;11.85;6.05;;;21.10;71.80;;;;;;5111954;28;20169;-76
2023/10/02 11:01:13;;;;;;;8.80;6.20;;;21.10;70.90;;;;;;5112342;28;20184;-77
2023/10/02 11:03:39;;;;;;;13.63;6.35;;;21.10;71.00;;;;;;5112374;28;20650;-75
2023/10/02 11:06:06;;;;;;;9.57;6.07;;;21.10;71.00;;;;;;5111410;28;20179;-74
2023/10/02 11:08:33;;;;;;;10.05;5.97;;;21.10;71.00;;;;;;5112431;28;20252;-75
2023/10/02 11:11:01;;;;;;;10.48;6.40;;;21.20;70.90;;;;;;5112159;28;20279;-75
2023/10/02 11:13:28;;;;;;;10.20;6.68;;;21.20;70.60;;;;;;5111605;28;20619;-75
2023/10/02 11:16:07;;;;;;;8.38;5.72;;;21.20;70.60;;;;;;5112618;28;20313;-75
2023/10/02 11:18:38;;;;;;;9.90;6.47;;;21.30;70.50;;;;;;5113308;28;20508;-76
2023/10/02 11:21:21;;;;;;;10.52;6.32;;;21.20;70.40;;;;;;5115112;28;20173;-74
2023/10/02 11:23:48;;;;;;;8.75;5.97;;;21.20;70.50;;;;;;5099576;28;20632;-76
2023/10/02 11:26:14;;;;;;;9.95;6.28;;;21.20;70.80;;;;;;5115117;28;20272;-75
2023/10/02 11:28:41;;;;;;;9.10;6.25;;;21.10;70.80;;;;;;5115944;28;20188;-76
2023/10/02 11:31:45;;;;;;;11.48;6.38;;;21.10;70.90;;;;;;5115581;28;20173;-71
2023/10/02 11:34:11;;;;;;;10.82;6.00;;;21.10;71.20;;;;;;5114546;28;20678;-76
2023/10/02 11:36:38;;;;;;;12.82;6.50;;;21.10;70.90;;;;;;5115521;28;20215;-76
2023/10/02 11:39:09;;;;;;;8.48;5.28;;;21.10;70.90;;;;;;5115270;28;20173;-75
2023/10/02 11:41:36;;;;;;;8.48;5.38;;;21.10;71.00;;;;;;5097556;28;20293;-75
2023/10/02 11:44:03;;;;;;;9.48;6.20;;;21.20;71.00;;;;;;5115304;28;20185;-75
2023/10/02 11:46:29;;;;;;;8.93;6.32;;;21.10;70.90;;;;;;5115195;28;20235;-76
2023/10/02 11:48:54;;;;;;;10.77;6.40;;;21.10;71.00;;;;;;5114704;28;20542;-73
2023/10/02 11:51:20;;;;;;;7.82;5.80;;;21.10;71.00;;;;;;5114860;28;20203;-76
2023/10/02 11:53:45;;;;;;;10.18;5.47;;;21.10;71.00;;;;;;5115156;28;20205;-76
2023/10/02 11:56:11;;;;;;;8.48;6.00;;;21.10;71.00;;;;;;5114239;28;20172;-76
2023/10/02 11:58:37;;;;;;;8.77;5.93;;;21.10;71.20;;;;;;5115363;28;20177;-76
2023/10/02 12:01:06;;;;;;;9.60;6.63;;;21.10;71.20;;;;;;5114631;28;20172;-76
2023/10/02 12:03:36;;;;;;;9.80;6.47;;;21.00;71.20;;;;;;5115207;28;20181;-76
2023/10/02 12:06:12;;;;;;;9.75;6.00;;;21.00;71.30;;;;;;5115147;28;20173;-75
2023/10/02 12:08:38;;;;;;;9.75;6.07;;;21.00;71.20;;;;;;5114476;28;20528;-76
2023/10/02 12:11:04;;;;;;;9.32;6.30;;;21.10;71.20;;;;;;5114735;28;20612;-76
2023/10/02 12:13:29;;;;;;;9.57;6.10;;;21.00;71.30;;;;;;5114803;28;20297;-76
2023/10/02 12:15:56;;;;;;;9.65;6.35;;;21.10;71.30;;;;;;5114397;28;20172;-76
2023/10/02 12:18:22;;;;;;;8.98;6.10;;;21.10;71.30;;;;;;5113637;28;20188;-74
2023/10/02 12:20:49;;;;;;;12.75;7.20;;;21.10;71.30;;;;;;5114743;28;20540;-76
2023/10/02 12:23:16;;;;;;;8.88;6.10;;;21.10;71.20;;;;;;5113895;28;20188;-74
2023/10/02 12:25:46;;;;;;;9.57;6.63;;;21.10;71.20;;;;;;5114739;28;20222;-76
2023/10/02 12:28:12;;;;;;;10.55;7.03;;;21.10;72.20;;;;;;5114219;28;20573;-75
2023/10/02 12:30:37;;;;;;;7.88;6.30;;;21.10;71.40;;;;;;5113676;28;20165;-75
2023/10/02 12:33:03;;;;;;;12.25;7.82;;;21.10;71.20;;;;;;5114486;28;20296;-75
2023/10/02 12:35:39;;;;;;;13.00;7.05;;;21.20;71.30;;;;;;5114982;28;20197;-77
2023/10/02 12:38:07;;;;;;;8.30;6.57;;;21.20;71.40;;;;;;5113624;28;20168;-74
2023/10/02 12:40:33;;;;;;;10.43;6.95;;;21.20;71.30;;;;;;5114254;28;20222;-74
2023/10/02 12:43:00;;;;;;;11.50;7.20;;;21.30;71.30;;;;;;5114410;28;20173;-76
2023/10/02 12:45:27;;;;;;;10.98;7.43;;;21.30;71.60;;;;;;5113578;28;20173;-76
2023/10/02 12:47:55;;;;;;;11.05;6.95;;;21.30;71.20;;;;;;5114251;28;20639;-76
2023/10/02 12:50:20;;;;;;;9.70;7.15;;;21.30;71.30;;;;;;5113217;28;20173;-76
2023/10/02 12:52:46;;;;;;;10.90;6.63;;;21.30;71.40;;;;;;5114072;28;20685;-76
2023/10/02 12:55:12;;;;;;;9.02;6.78;;;21.30;71.50;;;;;;5113708;28;20181;-75
2023/10/02 12:57:39;;;;;;;12.02;6.95;;;21.30;71.50;;;;;;5113256;28;20177;-76
2023/10/02 13:00:16;;;;;;;9.90;6.82;;;21.30;71.50;;;;;;5113652;28;20535;-75
2023/10/02 13:02:41;;;;;;;12.15;7.10;;;21.30;71.70;;;;;;5114036;28;20173;-74
2023/10/02 13:05:09;;;;;;;10.40;7.40;;;21.40;71.70;;;;;;5112890;28;20180;-74
2023/10/02 13:07:35;;;;;;;10.27;7.25;;;21.40;71.80;;;;;;5113874;28;20183;-72
2023/10/02 13:10:00;;;;;;;11.63;7.32;;;21.50;72.10;;;;;;5113568;28;20177;-73
2023/10/02 13:12:26;;;;;;;14.15;7.20;;;21.50;71.70;;;;;;5112969;28;20188;-72
2023/10/02 13:14:54;;;;;;;12.18;7.63;;;21.50;71.70;;;;;;5113864;28;20541;-72
2023/10/02 13:17:22;;;;;;;10.93;7.47;;;21.50;72.60;;;;;;5113432;28;20181;-72
2023/10/02 13:19:47;;;;;;;9.65;7.10;;;21.40;71.80;;;;;;5113031;28;20174;-72
2023/10/02 13:22:14;;;;;;;13.30;7.35;;;21.50;71.80;;;;;;5113207;28;20521;-72
2023/10/02 13:24:42;;;;;;;12.50;6.97;;;21.50;71.80;;;;;;5113703;28;20183;-72
2023/10/02 13:27:08;;;;;;;12.88;7.85;;;21.50;71.80;;;;;;5112725;28;20178;-71
2023/10/02 13:29:34;;;;;;;11.38;7.18;;;21.50;71.80;;;;;;5113549;28;20179;-74
2023/10/02 13:32:01;;;;;;;11.60;6.85;;;21.50;71.80;;;;;;5113428;28;20226;-75
2023/10/02 13:34:27;;;;;;;11.38;7.53;;;21.50;71.80;;;;;;5112466;28;20217;-74
2023/10/02 13:36:52;;;;;;;12.23;7.05;;;21.50;71.80;;;;;;5113403;28;20677;-73
2023/10/02 13:39:19;;;;;;;12.45;7.75;;;21.40;71.90;;;;;;5113179;28;20181;-73
2023/10/02 13:41:45;;;;;;;12.10;7.68;;;21.40;71.90;;;;;;5112215;28;20183;-76
2023/10/02 13:44:11;;;;;;;12.52;7.70;;;21.40;71.90;;;;;;5112982;28;20264;-76
2023/10/02 13:46:40;;;;;;;13.10;7.53;;;21.50;71.90;;;;;;5112373;28;20229;-73
2023/10/02 13:49:05;;;;;;;10.70;7.15;;;21.60;72.10;;;;;;5113007;28;20165;-75
2023/10/02 13:51:31;;;;;;;13.73;7.93;;;21.60;72.10;;;;;;5113065;28;20520;-72
2023/10/02 13:53:57;;;;;;;10.85;6.97;;;21.60;72.40;;;;;;5112262;28;20217;-72
2023/10/02 13:56:26;;;;;;;12.18;7.88;;;21.60;72.20;;;;;;5113116;28;20173;-76
2023/10/02 13:58:53;;;;;;;11.35;7.60;;;21.70;72.00;;;;;;5113275;28;20337;-75